Time,TemperatureF,DewpointF,PressureIn,WindDirection,WindDirectionDegrees,WindSpeedMPH,WindSpeedGustMPH,Humidity,HourlyPrecipIn,Conditions,Clouds,dailyrainin,SoftwareType,DateUTC
2013-10-10 00:00:00,50.8,37.8,29.59,WSW,255,6.0,7.0,61,0.00,CLR,,0.00,WeatherDisplay:10.37,2013-10-10 07:00:00,
2013-10-10 00:10:00,51.4,38.0,29.60,SW,231,5.0,7.0,60,0.00,CLR,,0.00,WeatherDisplay:10.37,2013-10-10 07:10:00,
2013-10-10 00:20:00,51.4,38.0,29.60,SW,231,3.0,4.0,60,0.00,CLR,,0.00,WeatherDisplay:10.37,2013-10-10 07:20:00,
2013-10-10 00:30:00,51.5,37.6,29.60,SW,226,6.0,7.0,59,0.00,CLR,,0.00,WeatherDisplay:10.37,2013-10-10 07:30:00,
2013-10-10 00:40:00,51.7,36.5,29.61,SW,220,6.0,9.0,56,0.00,CLR,,0.00,WeatherDisplay:10.37,2013-10-10 07:40:00,
2013-10-10 00:50:00,51.9,36.7,29.61,SW,219,2.0,6.0,56,0.00,CLR,,0.00,WeatherDisplay:10.37,2013-10-10 07:50:00,
2013-10-10 01:00:00,51.7,36.5,29.61,SW,217,0.0,7.0,56,0.00,CLR,,0.00,WeatherDisplay:10.37,2013-10-10 08:00:00,
2013-10-10 01:10:00,52.0,37.2,29.61,SW,217,1.0,4.0,57,0.00,CLR,,0.00,WeatherDisplay:10.37,2013-10-10 08:10:00,
2013-10-10 01:20:00,52.0,36.8,29.61,SW,217,1.0,5.0,56,0.00,CLR,,0.00,WeatherDisplay:10.37,2013-10-10 08:20:00,
2013-10-10 01:30:00,51.7,36.0,29.61,SW,217,1.0,4.0,55,0.00,CLR,,0.00,WeatherDisplay:10.37,2013-10-10 08:30:00,
2013-10-10 01:40:00,51.3,36.6,29.62,SW,217,0.0,0.0,57,0.00,CLR,,0.00,WeatherDisplay:10.37,2013-10-10 08:40:00,
2013-10-10 01:50:00,50.5,36.3,29.62,SW,217,0.0,1.0,58,0.00,CLR,,0.00,WeatherDisplay:10.37,2013-10-10 08:50:00,
2013-10-10 02:00:00,49.6,35.8,29.63,SW,217,2.0,4.0,59,0.00,CLR,,0.00,WeatherDisplay:10.37,2013-10-10 09:00:00,
2013-10-10 02:10:00,49.5,35.3,29.63,SW,217,1.0,3.0,58,0.00,CLR,,0.00,WeatherDisplay:10.37,2013-10-10 09:10:00,
2013-10-10 02:15:00,49.4,35.7,29.63,SW,217,2.0,3.0,59,0.00,CLR,,0.00,WeatherDisplay:10.37,2013-10-10 09:15:00,
2013-10-10 02:20:00,49.1,35.8,29.63,SW,217,1.0,4.0,60,0.00,CLR,,0.00,WeatherDisplay:10.37,2013-10-10 09:20:00,
2013-10-10 02:30:00,48.5,35.3,29.63,SW,217,2.0,5.0,60,0.00,CLR,,0.00,WeatherDisplay:10.37,2013-10-10 09:30:00,
2013-10-10 02:40:00,48.3,34.6,29.64,SW,217,2.0,5.0,59,0.00,CLR,,0.00,WeatherDisplay:10.37,2013-10-10 09:40:00,
2013-10-10 02:50:00,47.9,34.3,29.63,SW,216,3.0,6.0,59,0.00,CLR,,0.00,WeatherDisplay:10.37,2013-10-10 09:50:00,
2013-10-10 03:00:00,48.0,33.9,29.63,SW,215,0.0,3.0,58,0.00,CLR,,0.00,WeatherDisplay:10.37,2013-10-10 10:00:00,
2013-10-10 03:10:00,47.3,33.7,29.64,SW,215,0.0,0.0,59,0.00,CLR,,0.00,WeatherDisplay:10.37,2013-10-10 10:10:00,
2013-10-10 03:20:00,46.7,34.0,29.64,SW,215,0.0,2.0,61,0.00,CLR,,0.00,WeatherDisplay:10.37,2013-10-10 10:20:00,
2013-10-10 03:30:00,46.4,34.4,29.64,SW,215,1.0,3.0,63,0.00,CLR,,0.00,WeatherDisplay:10.37,2013-10-10 10:30:00,
2013-10-10 03:40:00,46.0,34.5,29.64,SW,215,0.0,0.0,64,0.00,CLR,,0.00,WeatherDisplay:10.37,2013-10-10 10:40:00,
2013-10-10 03:50:00,45.1,34.0,29.65,SW,215,2.0,3.0,65,0.00,CLR,,0.00,WeatherDisplay:10.37,2013-10-10 10:50:00,
2013-10-10 04:00:00,44.9,33.8,29.65,SW,215,5.0,6.0,65,0.00,CLR,,0.00,WeatherDisplay:10.37,2013-10-10 11:00:00,
2013-10-10 04:10:00,44.6,33.6,29.66,SW,215,2.0,5.0,65,0.00,CLR,,0.00,WeatherDisplay:10.37,2013-10-10 11:10:00,
2013-10-10 04:15:00,44.5,33.8,29.66,SW,215,1.0,2.0,66,0.00,CLR,,0.00,WeatherDisplay:10.37,2013-10-10 11:15:00,
2013-10-10 04:20:00,44.5,33.8,29.66,SW,215,0.0,2.0,66,0.00,CLR,,0.00,WeatherDisplay:10.37,2013-10-10 11:20:00,
2013-10-10 04:30:00,44.6,34.3,29.67,SW,215,0.0,3.0,67,0.00,CLR,,0.00,WeatherDisplay:10.37,2013-10-10 11:30:00,
2013-10-10 04:40:00,44.9,34.6,29.67,SW,215,5.0,6.0,67,0.00,CLR,,0.00,WeatherDisplay:10.37,2013-10-10 11:40:00,
2013-10-10 04:50:00,45.6,36.0,29.67,SW,215,5.0,6.0,69,0.00,CLR,,0.00,WeatherDisplay:10.37,2013-10-10 11:50:00,
2013-10-10 05:00:00,44.8,34.5,29.67,SW,215,3.0,6.0,67,0.00,CLR,,0.00,WeatherDisplay:10.37,2013-10-10 12:00:00,
2013-10-10 05:10:00,44.5,34.2,29.68,SW,215,3.0,6.0,67,0.00,CLR,,0.00,WeatherDisplay:10.37,2013-10-10 12:10:00,
2013-10-10 05:20:00,44.5,34.9,29.68,SSW,213,6.0,7.0,69,0.00,CLR,,0.00,WeatherDisplay:10.37,2013-10-10 12:20:00,
2013-10-10 05:30:00,46.9,33.7,29.68,SW,216,12.0,13.0,60,0.00,CLR,,0.00,WeatherDisplay:10.37,2013-10-10 12:30:00,
2013-10-10 05:40:00,47.9,32.5,29.69,SSW,202,2.0,9.0,55,0.00,CLR,,0.00,WeatherDisplay:10.37,2013-10-10 12:40:00,
2013-10-10 05:50:00,48.2,33.2,29.69,SSW,205,6.0,13.0,56,0.00,CLR,,0.00,WeatherDisplay:10.37,2013-10-10 12:50:00,
2013-10-10 06:00:00,48.7,33.3,29.69,SSW,210,17.0,22.0,55,0.00,CLR,,0.00,WeatherDisplay:10.37,2013-10-10 13:00:00,
2013-10-10 06:10:00,48.9,32.5,29.70,SW,218,17.0,24.0,53,0.00,CLR,,0.00,WeatherDisplay:10.37,2013-10-10 13:10:00,
2013-10-10 06:15:00,48.3,32.0,29.70,SW,217,14.0,18.0,53,0.00,CLR,,0.00,WeatherDisplay:10.37,2013-10-10 13:15:00,
2013-10-10 06:20:00,48.0,32.1,29.71,SSW,211,12.0,18.0,54,0.00,CLR,,0.00,WeatherDisplay:10.37,2013-10-10 13:20:00,
2013-10-10 06:30:00,48.0,32.1,29.71,SSW,201,12.0,18.0,54,0.00,CLR,,0.00,WeatherDisplay:10.37,2013-10-10 13:30:00,
2013-10-10 06:40:00,48.0,32.1,29.71,SSW,199,8.0,15.0,54,0.00,CLR,,0.00,WeatherDisplay:10.37,2013-10-10 13:40:00,
2013-10-10 06:50:00,48.1,32.2,29.71,South,184,5.0,12.0,54,0.00,CLR,,0.00,WeatherDisplay:10.37,2013-10-10 13:50:00,
2013-10-10 07:00:00,47.9,32.5,29.71,South,184,6.0,10.0,55,0.00,CLR,,0.00,WeatherDisplay:10.37,2013-10-10 14:00:00,
2013-10-10 07:10:00,47.9,33.4,29.71,South,190,5.0,9.0,57,0.00,CLR,,0.00,WeatherDisplay:10.37,2013-10-10 14:10:00,
2013-10-10 07:20:00,47.4,32.5,29.71,SSW,194,0.0,0.0,56,0.00,CLR,,0.00,WeatherDisplay:10.37,2013-10-10 14:20:00,
2013-10-10 07:30:00,45.9,32.8,29.73,West,276,7.0,10.0,60,0.00,CLR,,0.00,WeatherDisplay:10.37,2013-10-10 14:30:00,
2013-10-10 07:40:00,42.9,33.4,29.75,WNW,301,7.0,10.0,69,0.00,CLR,,0.00,WeatherDisplay:10.37,2013-10-10 14:40:00,
2013-10-10 07:50:00,42.6,33.5,29.75,West,280,3.0,7.0,70,0.00,CLR,,0.00,WeatherDisplay:10.37,2013-10-10 14:50:00,
2013-10-10 08:00:00,43.5,34.3,29.76,West,264,6.0,7.0,70,0.00,CLR,,0.00,WeatherDisplay:10.37,2013-10-10 15:00:00,
2013-10-10 08:10:00,44.6,35.0,29.76,WSW,250,5.0,6.0,69,0.00,CLR,,0.00,WeatherDisplay:10.37,2013-10-10 15:10:00,
2013-10-10 08:20:00,46.5,35.8,29.76,SW,233,7.0,12.0,66,0.00,CLR,,0.00,WeatherDisplay:10.37,2013-10-10 15:20:00,
2013-10-10 08:30:00,47.6,36.4,29.76,SW,234,5.0,7.0,65,0.00,CLR,,0.00,WeatherDisplay:10.37,2013-10-10 15:30:00,
2013-10-10 08:40:00,49.4,37.0,29.77,SW,233,2.0,4.0,62,0.00,CLR,,0.00,WeatherDisplay:10.37,2013-10-10 15:40:00,
2013-10-10 08:50:00,51.5,34.9,29.77,SW,221,7.0,12.0,53,0.00,CLR,,0.00,WeatherDisplay:10.37,2013-10-10 15:50:00,
2013-10-10 09:00:00,53.1,34.9,29.77,SW,216,3.0,12.0,50,0.00,CLR,,0.00,WeatherDisplay:10.37,2013-10-10 16:00:00,
2013-10-10 09:10:00,53.4,34.1,29.77,SW,217,1.0,5.0,48,0.00,CLR,,0.00,WeatherDisplay:10.37,2013-10-10 16:10:00,
2013-10-10 09:20:00,54.6,32.6,29.76,SSW,198,6.0,10.0,43,0.00,CLR,,0.00,WeatherDisplay:10.37,2013-10-10 16:20:00,
2013-10-10 09:30:00,56.0,32.0,29.76,South,188,3.0,8.0,40,0.00,CLR,,0.00,WeatherDisplay:10.37,2013-10-10 16:30:00,
2013-10-10 09:40:00,57.3,31.2,29.76,South,177,1.0,5.0,37,0.00,CLR,,0.00,WeatherDisplay:10.37,2013-10-10 16:40:00,
2013-10-10 09:50:00,57.6,30.8,29.76,South,183,3.0,10.0,36,0.00,CLR,,0.00,WeatherDisplay:10.37,2013-10-10 16:50:00,
2013-10-10 10:00:00,58.7,31.1,29.76,South,183,2.0,5.0,35,0.00,CLR,,0.00,WeatherDisplay:10.37,2013-10-10 17:00:00,
2013-10-10 10:10:00,58.6,33.1,29.76,South,181,2.0,7.0,38,0.00,CLR,,0.00,WeatherDisplay:10.37,2013-10-10 17:10:00,
2013-10-10 10:20:00,58.1,34.5,29.77,SW,218,6.0,12.0,41,0.00,CLR,,0.00,WeatherDisplay:10.37,2013-10-10 17:20:00,
2013-10-10 10:30:00,57.4,34.5,29.78,West,273,3.0,7.0,42,0.00,CLR,,0.00,WeatherDisplay:10.37,2013-10-10 17:30:00,
2013-10-10 10:40:00,57.6,35.2,29.78,WSW,242,2.0,9.0,43,0.00,CLR,,0.00,WeatherDisplay:10.37,2013-10-10 17:40:00,
2013-10-10 10:50:00,58.3,34.7,29.78,WSW,253,2.0,5.0,41,0.00,CLR,,0.00,WeatherDisplay:10.37,2013-10-10 17:50:00,
2013-10-10 11:00:00,59.2,34.9,29.78,WSW,253,2.0,4.0,40,0.00,CLR,,0.00,WeatherDisplay:10.37,2013-10-10 18:00:00,
2013-10-10 11:10:00,59.6,34.0,29.78,WSW,253,2.0,3.0,38,0.00,CLR,,0.00,WeatherDisplay:10.37,2013-10-10 18:10:00,
2013-10-10 11:20:00,60.9,33.8,29.77,SW,226,2.0,6.0,36,0.00,CLR,,0.00,WeatherDisplay:10.37,2013-10-10 18:20:00,
2013-10-10 11:30:00,62.3,32.8,29.77,SE,127,3.0,5.0,33,0.00,CLR,,0.00,WeatherDisplay:10.37,2013-10-10 18:30:00,
2013-10-10 11:40:00,62.6,33.1,29.77,East,89,3.0,6.0,33,0.00,CLR,,0.00,WeatherDisplay:10.37,2013-10-10 18:40:00,
2013-10-10 11:50:00,64.0,31.9,29.77,ENE,67,1.0,5.0,30,0.00,CLR,,0.00,WeatherDisplay:10.37,2013-10-10 18:50:00,
2013-10-10 12:00:00,64.4,32.2,29.77,SW,218,6.0,16.0,30,0.00,CLR,,0.00,WeatherDisplay:10.37,2013-10-10 19:00:00,
2013-10-10 12:10:00,63.5,31.5,29.77,WNW,293,3.0,7.0,30,0.00,CLR,,0.00,WeatherDisplay:10.37,2013-10-10 19:10:00,
2013-10-10 12:15:00,63.6,30.7,29.76,West,280,1.0,7.0,29,0.00,CLR,,0.00,WeatherDisplay:10.37,2013-10-10 19:15:00,
2013-10-10 12:20:00,63.9,31.0,29.76,West,275,3.0,9.0,29,0.00,CLR,,0.00,WeatherDisplay:10.37,2013-10-10 19:20:00,
2013-10-10 12:30:00,64.6,30.7,29.75,SSW,202,7.0,9.0,28,0.00,CLR,,0.00,WeatherDisplay:10.37,2013-10-10 19:30:00,
2013-10-10 12:40:00,65.1,31.2,29.75,SW,230,2.0,9.0,28,0.00,CLR,,0.00,WeatherDisplay:10.37,2013-10-10 19:40:00,
2013-10-10 12:50:00,65.3,31.3,29.75,WNW,289,2.0,5.0,28,0.00,CLR,,0.00,WeatherDisplay:10.37,2013-10-10 19:50:00,
2013-10-10 13:00:00,65.4,31.4,29.74,WNW,290,2.0,5.0,28,0.00,CLR,,0.00,WeatherDisplay:10.37,2013-10-10 20:00:00,
2013-10-10 13:10:00,66.3,30.4,29.73,SW,214,3.0,12.0,26,0.00,CLR,,0.00,WeatherDisplay:10.37,2013-10-10 20:10:00,
2013-10-10 13:20:00,66.8,30.8,29.73,SW,215,5.0,10.0,26,0.00,CLR,,0.00,WeatherDisplay:10.37,2013-10-10 20:20:00,
2013-10-10 13:30:00,67.9,29.7,29.73,SW,217,0.0,3.0,24,0.00,CLR,,0.00,WeatherDisplay:10.37,2013-10-10 20:30:00,
2013-10-10 13:40:00,69.1,30.7,29.72,SE,137,2.0,4.0,24,0.00,CLR,,0.00,WeatherDisplay:10.37,2013-10-10 20:40:00,
2013-10-10 13:50:00,69.6,29.0,29.72,SSE,150,5.0,10.0,22,0.00,CLR,,0.00,WeatherDisplay:10.37,2013-10-10 20:50:00,
2013-10-10 14:00:00,70.3,28.5,29.72,SE,128,2.0,5.0,21,0.00,CLR,,0.00,WeatherDisplay:10.37,2013-10-10 21:00:00,
2013-10-10 14:10:00,70.8,30.0,29.72,SE,138,2.0,7.0,22,0.00,CLR,,0.00,WeatherDisplay:10.37,2013-10-10 21:10:00,
2013-10-10 14:15:00,71.3,29.3,29.72,ESE,120,5.0,13.0,21,0.00,CLR,,0.00,WeatherDisplay:10.37,2013-10-10 21:15:00,
2013-10-10 14:20:00,71.5,29.5,29.71,ESE,123,2.0,6.0,21,0.00,CLR,,0.00,WeatherDisplay:10.37,2013-10-10 21:20:00,
2013-10-10 14:30:00,70.9,29.0,29.72,ESE,118,3.0,12.0,21,0.00,CLR,,0.00,WeatherDisplay:10.37,2013-10-10 21:30:00,
2013-10-10 14:40:00,71.5,28.3,29.72,SE,132,0.0,6.0,20,0.00,CLR,,0.00,WeatherDisplay:10.37,2013-10-10 21:40:00,
2013-10-10 14:50:00,71.8,28.5,29.72,ESE,115,3.0,12.0,20,0.00,CLR,,0.00,WeatherDisplay:10.37,2013-10-10 21:50:00,
2013-10-10 15:00:00,71.6,28.4,29.72,ESE,106,2.0,7.0,20,0.00,CLR,,0.00,WeatherDisplay:10.37,2013-10-10 22:00:00,
2013-10-10 15:10:00,72.2,27.6,29.72,East,99,6.0,10.0,19,0.00,CLR,,0.00,WeatherDisplay:10.37,2013-10-10 22:10:00,
2013-10-10 15:20:00,71.5,28.3,29.72,ENE,67,2.0,9.0,20,0.00,CLR,,0.00,WeatherDisplay:10.37,2013-10-10 22:20:00,
2013-10-10 15:30:00,71.6,28.4,29.72,NNE,33,2.0,8.0,20,0.00,CLR,,0.00,WeatherDisplay:10.37,2013-10-10 22:30:00,
2013-10-10 15:40:00,72.5,27.8,29.71,SSE,150,1.0,10.0,19,0.00,CLR,,0.00,WeatherDisplay:10.37,2013-10-10 22:40:00,
2013-10-10 15:50:00,72.3,27.7,29.71,South,172,7.0,15.0,19,0.00,CLR,,0.00,WeatherDisplay:10.37,2013-10-10 22:50:00,
2013-10-10 16:00:00,72.8,28.1,29.70,SE,146,9.0,16.0,19,0.00,CLR,,0.00,WeatherDisplay:10.37,2013-10-10 23:00:00,
2013-10-10 16:10:00,72.5,27.9,29.71,South,186,5.0,12.0,19,0.00,CLR,,0.00,WeatherDisplay:10.37,2013-10-10 23:10:00,
2013-10-10 16:15:00,71.9,27.4,29.72,SSW,208,6.0,10.0,19,0.00,CLR,,0.00,WeatherDisplay:10.37,2013-10-10 23:15:00,
2013-10-10 16:20:00,72.0,27.5,29.72,SW,236,2.0,6.0,19,0.00,CLR,,0.00,WeatherDisplay:10.37,2013-10-10 23:20:00,
2013-10-10 16:30:00,72.5,29.1,29.72,SSW,195,7.0,10.0,20,0.00,CLR,,0.00,WeatherDisplay:10.37,2013-10-10 23:30:00,
2013-10-10 16:40:00,72.1,28.8,29.72,SSW,200,5.0,8.0,20,0.00,CLR,,0.00,WeatherDisplay:10.37,2013-10-10 23:40:00,
2013-10-10 16:50:00,72.0,29.9,29.72,SSE,165,2.0,9.0,21,0.00,CLR,,0.00,WeatherDisplay:10.37,2013-10-10 23:50:00,
2013-10-10 17:00:00,72.1,30.0,29.72,South,190,2.0,6.0,21,0.00,CLR,,0.00,WeatherDisplay:10.37,2013-10-11 00:00:00,
2013-10-10 17:10:00,72.0,29.9,29.72,SSW,194,2.0,6.0,21,0.00,CLR,,0.00,WeatherDisplay:10.37,2013-10-11 00:10:00,
2013-10-10 17:20:00,72.1,30.0,29.72,SSW,199,2.0,6.0,21,0.00,CLR,,0.00,WeatherDisplay:10.37,2013-10-11 00:20:00,
2013-10-10 17:30:00,71.1,28.0,29.72,SSW,210,3.0,7.0,20,0.00,CLR,,0.00,WeatherDisplay:10.37,2013-10-11 00:30:00,
2013-10-10 17:40:00,70.6,28.7,29.72,SW,230,5.0,9.0,21,0.00,CLR,,0.00,WeatherDisplay:10.37,2013-10-11 00:40:00,
2013-10-10 17:50:00,69.9,28.1,29.72,West,278,6.0,12.0,21,0.00,CLR,,0.00,WeatherDisplay:10.37,2013-10-11 00:50:00,
2013-10-10 18:00:00,69.3,28.8,29.73,WNW,290,7.0,9.0,22,0.00,CLR,,0.00,WeatherDisplay:10.37,2013-10-11 01:00:00,
2013-10-10 18:10:00,68.6,28.2,29.74,WNW,296,5.0,9.0,22,0.00,CLR,,0.00,WeatherDisplay:10.37,2013-10-11 01:10:00,
2013-10-10 18:20:00,67.4,30.4,29.74,WNW,297,3.0,6.0,25,0.00,CLR,,0.00,WeatherDisplay:10.37,2013-10-11 01:20:00,
2013-10-10 18:30:00,66.4,31.4,29.75,WNW,282,5.0,6.0,27,0.00,CLR,,0.00,WeatherDisplay:10.37,2013-10-11 01:30:00,
2013-10-10 18:40:00,65.9,31.8,29.75,West,281,3.0,6.0,28,0.00,CLR,,0.00,WeatherDisplay:10.37,2013-10-11 01:40:00,
2013-10-10 18:50:00,64.7,30.8,29.75,West,278,2.0,5.0,28,0.00,CLR,,0.00,WeatherDisplay:10.37,2013-10-11 01:50:00,
2013-10-10 19:00:00,64.0,31.9,29.76,West,277,2.0,5.0,30,0.00,CLR,,0.00,WeatherDisplay:10.37,2013-10-11 02:00:00,
2013-10-10 19:10:00,63.4,32.2,29.76,West,277,3.0,5.0,31,0.00,CLR,,0.00,WeatherDisplay:10.37,2013-10-11 02:10:00,
2013-10-10 19:20:00,62.3,32.0,29.77,West,277,3.0,4.0,32,0.00,CLR,,0.00,WeatherDisplay:10.37,2013-10-11 02:20:00,
2013-10-10 19:30:00,61.8,32.4,29.77,West,274,5.0,6.0,33,0.00,CLR,,0.00,WeatherDisplay:10.37,2013-10-11 02:30:00,
2013-10-10 19:40:00,61.5,32.8,29.77,West,271,1.0,5.0,34,0.00,CLR,,0.00,WeatherDisplay:10.37,2013-10-11 02:40:00,
2013-10-10 19:50:00,60.8,33.0,29.78,West,271,0.0,0.0,35,0.00,CLR,,0.00,WeatherDisplay:10.37,2013-10-11 02:50:00,
2013-10-10 20:00:00,60.1,33.0,29.79,WSW,255,3.0,7.0,36,0.00,CLR,,0.00,WeatherDisplay:10.37,2013-10-11 03:00:00,
2013-10-10 20:10:00,60.7,32.9,29.79,SW,226,0.0,5.0,35,0.00,CLR,,0.00,WeatherDisplay:10.37,2013-10-11 03:10:00,
2013-10-10 20:20:00,61.0,33.1,29.79,SW,220,3.0,6.0,35,0.00,CLR,,0.00,WeatherDisplay:10.37,2013-10-11 03:20:00,
2013-10-10 20:30:00,60.7,32.9,29.78,SW,219,1.0,5.0,35,0.00,CLR,,0.00,WeatherDisplay:10.37,2013-10-11 03:30:00,
2013-10-10 20:40:00,60.2,33.1,29.79,SW,219,2.0,6.0,36,0.00,CLR,,0.00,WeatherDisplay:10.37,2013-10-11 03:40:00,
2013-10-10 20:50:00,60.1,33.7,29.79,SSW,213,2.0,5.0,37,0.00,CLR,,0.00,WeatherDisplay:10.37,2013-10-11 03:50:00,
2013-10-10 21:00:00,59.7,33.3,29.79,SSW,212,0.0,5.0,37,0.00,CLR,,0.00,WeatherDisplay:10.37,2013-10-11 04:00:00,
2013-10-10 21:05:00,59.3,33.7,29.80,SSW,212,0.0,3.0,38,0.00,CLR,,0.00,WeatherDisplay:10.37,2013-10-11 04:05:00,
2013-10-10 21:10:00,59.2,33.6,29.80,SSW,212,2.0,6.0,38,0.00,CLR,,0.00,WeatherDisplay:10.37,2013-10-11 04:10:00,
2013-10-10 21:15:00,59.0,33.4,29.80,SSW,212,0.0,4.0,38,0.00,CLR,,0.00,WeatherDisplay:10.37,2013-10-11 04:15:00,
2013-10-10 21:20:00,58.9,34.0,29.80,SSW,212,0.0,4.0,39,0.00,CLR,,0.00,WeatherDisplay:10.37,2013-10-11 04:20:00,
2013-10-10 21:30:00,58.6,33.7,29.80,SSW,212,2.0,5.0,39,0.00,CLR,,0.00,WeatherDisplay:10.37,2013-10-11 04:30:00,
2013-10-10 21:40:00,58.4,34.2,29.80,SSW,212,2.0,5.0,40,0.00,CLR,,0.00,WeatherDisplay:10.37,2013-10-11 04:40:00,
2013-10-10 21:50:00,58.1,33.9,29.81,SSW,212,1.0,4.0,40,0.00,CLR,,0.00,WeatherDisplay:10.37,2013-10-11 04:50:00,
2013-10-10 22:00:00,58.0,34.4,29.81,SSW,212,2.0,4.0,41,0.00,CLR,,0.00,WeatherDisplay:10.37,2013-10-11 05:00:00,
2013-10-10 22:10:00,58.0,34.4,29.81,SSW,211,2.0,7.0,41,0.00,CLR,,0.00,WeatherDisplay:10.37,2013-10-11 05:10:00,
2013-10-10 22:20:00,57.8,34.2,29.81,SSW,209,0.0,3.0,41,0.00,CLR,,0.00,WeatherDisplay:10.37,2013-10-11 05:20:00,
2013-10-10 22:30:00,57.7,34.2,29.80,SSW,209,0.0,5.0,41,0.00,CLR,,0.00,WeatherDisplay:10.37,2013-10-11 05:30:00,
2013-10-10 22:40:00,57.5,34.6,29.80,SSW,209,0.0,3.0,42,0.00,CLR,,0.00,WeatherDisplay:10.37,2013-10-11 05:40:00,
2013-10-10 22:50:00,57.0,34.7,29.81,SSW,209,0.0,0.0,43,0.00,CLR,,0.00,WeatherDisplay:10.37,2013-10-11 05:50:00,
2013-10-10 22:55:00,56.9,34.6,29.81,SSW,209,1.0,4.0,43,0.00,CLR,,0.00,WeatherDisplay:10.37,2013-10-11 05:55:00,
2013-10-10 23:00:00,56.9,34.6,29.81,SSW,209,1.0,6.0,43,0.00,CLR,,0.00,WeatherDisplay:10.37,2013-10-11 06:00:00,
2013-10-10 23:10:00,56.9,34.6,29.82,SSW,209,2.0,5.0,43,0.00,CLR,,0.00,WeatherDisplay:10.37,2013-10-11 06:10:00,
2013-10-10 23:15:00,57.0,34.7,29.82,SSW,209,2.0,4.0,43,0.00,CLR,,0.00,WeatherDisplay:10.37,2013-10-11 06:15:00,
2013-10-10 23:20:00,57.2,34.3,29.82,SSW,209,0.0,4.0,42,0.00,CLR,,0.00,WeatherDisplay:10.37,2013-10-11 06:20:00,
2013-10-10 23:30:00,56.9,34.6,29.81,SSW,209,0.0,0.0,43,0.00,CLR,,0.00,WeatherDisplay:10.37,2013-10-11 06:30:00,
2013-10-10 23:40:00,56.5,34.3,29.81,SSW,209,0.0,2.0,43,0.00,CLR,,0.00,WeatherDisplay:10.37,2013-10-11 06:40:00,
2013-10-10 23:50:00,55.9,34.3,29.81,SSW,209,1.0,4.0,44,0.00,CLR,,0.00,WeatherDisplay:10.37,2013-10-11 06:50:00,